sensor_id;sensor_type;location;lat;lon;timestamp;pressure;altitude;pressure_sealevel;temperature;humidity
60642;BME280;46837;52.446;-1.930;2022-07-09T00:00:09;101813.53;;;18.22;64.73
60642;BME280;46837;52.446;-1.930;2022-07-09T00:01:09;101816.02;;;18.22;64.72
60642;BME280;46837;52.446;-1.930;2022-07-09T00:02:09;101811.43;;;18.18;64.83
60642;BME280;46837;52.446;-1.930;2022-07-09T00:03:09;101811.11;;;18.21;64.78
60642;BME280;46837;52.446;-1.930;2022-07-09T00:04:09;101811.82;;;18.19;64.85
60642;BME280;46837;52.446;-1.930;2022-07-09T00:05:09;101810.88;;;18.19;64.82
60642;BME280;46837;52.446;-1.930;2022-07-09T00:06:09;101811.07;;;18.18;64.82
60642;BME280;46837;52.446;-1.930;2022-07-09T00:07:09;101808.91;;;18.18;64.84
60642;BME280;46837;52.446;-1.930;2022-07-09T00:08:09;101813.66;;;18.15;64.93
60642;BME280;46837;52.446;-1.930;2022-07-09T00:09:09;101813.51;;;18.14;64.98
60642;BME280;46837;52.446;-1.930;2022-07-09T00:10:09;101811.46;;;18.12;64.98
60642;BME280;46837;52.446;-1.930;2022-07-09T00:11:09;101811.78;;;18.12;65.03
60642;BME280;46837;52.446;-1.930;2022-07-09T00:12:09;101808.91;;;18.13;65.01
60642;BME280;46837;52.446;-1.930;2022-07-09T00:13:09;101807.46;;;18.16;64.94
60642;BME280;46837;52.446;-1.930;2022-07-09T00:14:09;101806.85;;;18.15;64.96
60642;BME280;46837;52.446;-1.930;2022-07-09T00:15:09;101807.42;;;18.18;64.85
60642;BME280;46837;52.446;-1.930;2022-07-09T00:16:09;101805.09;;;18.16;64.93
60642;BME280;46837;52.446;-1.930;2022-07-09T00:17:09;101804.70;;;18.17;64.90
60642;BME280;46837;52.446;-1.930;2022-07-09T00:18:09;101807.69;;;18.17;64.92
60642;BME280;46837;52.446;-1.930;2022-07-09T00:19:09;101808.56;;;18.19;64.82
60642;BME280;46837;52.446;-1.930;2022-07-09T00:20:09;101807.03;;;18.18;64.91
60642;BME280;46837;52.446;-1.930;2022-07-09T00:21:09;101808.58;;;18.18;64.95
60642;BME280;46837;52.446;-1.930;2022-07-09T00:22:09;101810.07;;;18.18;64.96
60642;BME280;46837;52.446;-1.930;2022-07-09T00:23:09;101810.68;;;18.17;64.97
60642;BME280;46837;52.446;-1.930;2022-07-09T00:24:09;101806.97;;;18.17;64.99
60642;BME280;46837;52.446;-1.930;2022-07-09T00:25:09;101810.29;;;18.17;64.98
60642;BME280;46837;52.446;-1.930;2022-07-09T00:26:09;101805.86;;;18.15;65.01
60642;BME280;46837;52.446;-1.930;2022-07-09T00:27:09;101809.79;;;18.17;64.95
60642;BME280;46837;52.446;-1.930;2022-07-09T00:28:09;101814.60;;;18.16;65.02
60642;BME280;46837;52.446;-1.930;2022-07-09T00:29:09;101812.06;;;18.13;65.16
60642;BME280;46837;52.446;-1.930;2022-07-09T00:30:09;101810.30;;;18.14;65.14
60642;BME280;46837;52.446;-1.930;2022-07-09T00:31:09;101806.92;;;18.13;65.18
60642;BME280;46837;52.446;-1.930;2022-07-09T00:32:09;101811.34;;;18.12;65.21
60642;BME280;46837;52.446;-1.930;2022-07-09T00:33:09;101812.57;;;18.09;65.35
60642;BME280;46837;52.446;-1.930;2022-07-09T00:34:09;101802.60;;;18.13;65.26
60642;BME280;46837;52.446;-1.930;2022-07-09T00:35:09;101804.05;;;18.05;65.53
60642;BME280;46837;52.446;-1.930;2022-07-09T00:36:09;101805.82;;;18.08;65.38
60642;BME280;46837;52.446;-1.930;2022-07-09T00:37:09;101803.28;;;18.10;65.32
60642;BME280;46837;52.446;-1.930;2022-07-09T00:38:09;101800.18;;;18.09;65.38
60642;BME280;46837;52.446;-1.930;2022-07-09T00:39:09;101797.92;;;18.07;65.45
60642;BME280;46837;52.446;-1.930;2022-07-09T00:40:09;101798.90;;;18.09;65.37
60642;BME280;46837;52.446;-1.930;2022-07-09T00:41:09;101796.08;;;18.10;65.33
60642;BME280;46837;52.446;-1.930;2022-07-09T00:42:09;101800.40;;;18.10;65.38
60642;BME280;46837;52.446;-1.930;2022-07-09T00:44:09;101800.90;;;18.10;65.35
60642;BME280;46837;52.446;-1.930;2022-07-09T00:45:09;101800.79;;;18.11;65.30
60642;BME280;46837;52.446;-1.930;2022-07-09T00:46:09;101798.51;;;18.12;65.27
60642;BME280;46837;52.446;-1.930;2022-07-09T00:47:09;101798.52;;;18.11;65.34
60642;BME280;46837;52.446;-1.930;2022-07-09T00:48:09;101800.11;;;18.13;65.23
60642;BME280;46837;52.446;-1.930;2022-07-09T00:49:09;101801.44;;;18.12;65.31
60642;BME280;46837;52.446;-1.930;2022-07-09T00:50:09;101798.56;;;18.11;65.34
60642;BME280;46837;52.446;-1.930;2022-07-09T00:51:09;101796.86;;;18.11;65.38
60642;BME280;46837;52.446;-1.930;2022-07-09T00:52:11;101797.34;;;18.12;65.32
60642;BME280;46837;52.446;-1.930;2022-07-09T00:53:14;101794.87;;;18.11;65.35
60642;BME280;46837;52.446;-1.930;2022-07-09T00:54:09;101795.10;;;18.06;65.55
60642;BME280;46837;52.446;-1.930;2022-07-09T00:55:09;101795.15;;;18.07;65.52
60642;BME280;46837;52.446;-1.930;2022-07-09T00:56:09;101793.54;;;18.08;65.45
60642;BME280;46837;52.446;-1.930;2022-07-09T00:57:09;101791.39;;;18.06;65.55
60642;BME280;46837;52.446;-1.930;2022-07-09T00:58:09;101793.22;;;18.03;65.64
60642;BME280;46837;52.446;-1.930;2022-07-09T00:59:13;101793.23;;;17.98;65.83
60642;BME280;46837;52.446;-1.930;2022-07-09T01:00:09;101795.11;;;17.99;65.83
60642;BME280;46837;52.446;-1.930;2022-07-09T01:01:09;101791.18;;;18.00;65.74
60642;BME280;46837;52.446;-1.930;2022-07-09T01:02:09;101788.47;;;17.98;65.84
60642;BME280;46837;52.446;-1.930;2022-07-09T01:03:09;101788.36;;;17.95;65.97
60642;BME280;46837;52.446;-1.930;2022-07-09T01:04:09;101786.93;;;17.96;65.96
60642;BME280;46837;52.446;-1.930;2022-07-09T01:05:09;101787.15;;;17.92;66.09
60642;BME280;46837;52.446;-1.930;2022-07-09T01:06:09;101787.48;;;17.92;66.14
60642;BME280;46837;52.446;-1.930;2022-07-09T01:07:09;101787.54;;;17.91;66.18
60642;BME280;46837;52.446;-1.930;2022-07-09T01:08:09;101786.88;;;17.93;66.13
60642;BME280;46837;52.446;-1.930;2022-07-09T01:09:09;101781.68;;;17.92;66.15
60642;BME280;46837;52.446;-1.930;2022-07-09T01:10:09;101779.91;;;17.91;66.20
60642;BME280;46837;52.446;-1.930;2022-07-09T01:11:09;101780.79;;;17.94;66.09
60642;BME280;46837;52.446;-1.930;2022-07-09T01:12:09;101777.13;;;17.94;66.14
60642;BME280;46837;52.446;-1.930;2022-07-09T01:13:09;101780.57;;;17.91;66.23
60642;BME280;46837;52.446;-1.930;2022-07-09T01:14:09;101781.57;;;17.92;66.28
60642;BME280;46837;52.446;-1.930;2022-07-09T01:15:09;101780.64;;;17.93;66.22
60642;BME280;46837;52.446;-1.930;2022-07-09T01:16:15;101782.96;;;17.88;66.43
60642;BME280;46837;52.446;-1.930;2022-07-09T01:17:09;101782.53;;;17.86;66.52
60642;BME280;46837;52.446;-1.930;2022-07-09T01:18:14;101774.72;;;17.81;66.74
60642;BME280;46837;52.446;-1.930;2022-07-09T01:19:09;101777.27;;;17.81;66.72
60642;BME280;46837;52.446;-1.930;2022-07-09T01:20:09;101777.98;;;17.80;66.77
60642;BME280;46837;52.446;-1.930;2022-07-09T01:21:09;101778.59;;;17.81;66.74
60642;BME280;46837;52.446;-1.930;2022-07-09T01:22:09;101777.39;;;17.82;66.65
60642;BME280;46837;52.446;-1.930;2022-07-09T01:23:09;101775.71;;;17.81;66.72
60642;BME280;46837;52.446;-1.930;2022-07-09T01:24:09;101771.91;;;17.82;66.69
60642;BME280;46837;52.446;-1.930;2022-07-09T01:25:09;101772.72;;;17.83;66.66
60642;BME280;46837;52.446;-1.930;2022-07-09T01:26:09;101775.89;;;17.82;66.73
60642;BME280;46837;52.446;-1.930;2022-07-09T01:27:09;101768.88;;;17.79;66.83
60642;BME280;46837;52.446;-1.930;2022-07-09T01:28:11;101767.86;;;17.80;66.80
60642;BME280;46837;52.446;-1.930;2022-07-09T01:29:09;101770.14;;;17.79;66.84
60642;BME280;46837;52.446;-1.930;2022-07-09T01:30:09;101768.19;;;17.80;66.80
60642;BME280;46837;52.446;-1.930;2022-07-09T01:31:09;101769.81;;;17.78;66.86
60642;BME280;46837;52.446;-1.930;2022-07-09T01:32:09;101764.93;;;17.76;66.95
60642;BME280;46837;52.446;-1.930;2022-07-09T01:33:09;101765.38;;;17.77;66.91
60642;BME280;46837;52.446;-1.930;2022-07-09T01:34:09;101764.56;;;17.79;66.84
60642;BME280;46837;52.446;-1.930;2022-07-09T01:35:09;101767.37;;;17.81;66.75
60642;BME280;46837;52.446;-1.930;2022-07-09T01:36:09;101762.95;;;17.81;66.79
60642;BME280;46837;52.446;-1.930;2022-07-09T01:37:09;101763.55;;;17.80;66.86
60642;BME280;46837;52.446;-1.930;2022-07-09T01:38:09;101762.61;;;17.76;67.01
60642;BME280;46837;52.446;-1.930;2022-07-09T01:39:09;101760.99;;;17.75;67.01
60642;BME280;46837;52.446;-1.930;2022-07-09T01:40:09;101758.44;;;17.73;67.12
60642;BME280;46837;52.446;-1.930;2022-07-09T01:41:09;101756.40;;;17.71;67.17
60642;BME280;46837;52.446;-1.930;2022-07-09T01:42:09;101756.73;;;17.67;67.29
60642;BME280;46837;52.446;-1.930;2022-07-09T01:43:09;101755.80;;;17.65;67.39
60642;BME280;46837;52.446;-1.930;2022-07-09T01:44:09;101757.79;;;17.68;67.32
60642;BME280;46837;52.446;-1.930;2022-07-09T01:45:09;101757.73;;;17.68;67.32
60642;BME280;46837;52.446;-1.930;2022-07-09T01:46:09;101757.74;;;17.64;67.44
60642;BME280;46837;52.446;-1.930;2022-07-09T01:47:09;101759.28;;;17.63;67.51
60642;BME280;46837;52.446;-1.930;2022-07-09T01:48:09;101757.80;;;17.61;67.55
60642;BME280;46837;52.446;-1.930;2022-07-09T01:49:09;101761.17;;;17.61;67.56
60642;BME280;46837;52.446;-1.930;2022-07-09T01:50:09;101758.91;;;17.58;67.66
60642;BME280;46837;52.446;-1.930;2022-07-09T01:51:09;101759.51;;;17.57;67.66
60642;BME280;46837;52.446;-1.930;2022-07-09T01:52:09;101760.95;;;17.58;67.65
60642;BME280;46837;52.446;-1.930;2022-07-09T01:53:09;101759.06;;;17.60;67.55
60642;BME280;46837;52.446;-1.930;2022-07-09T01:54:09;101756.91;;;17.60;67.63
60642;BME280;46837;52.446;-1.930;2022-07-09T01:55:09;101757.57;;;17.60;67.57
60642;BME280;46837;52.446;-1.930;2022-07-09T01:56:09;101756.29;;;17.62;67.49
60642;BME280;46837;52.446;-1.930;2022-07-09T01:57:09;101754.64;;;17.61;67.55
60642;BME280;46837;52.446;-1.930;2022-07-09T01:58:09;101754.74;;;17.62;67.50
60642;BME280;46837;52.446;-1.930;2022-07-09T01:59:09;101753.58;;;17.63;67.48
60642;BME280;46837;52.446;-1.930;2022-07-09T02:00:09;101751.05;;;17.61;67.56
60642;BME280;46837;52.446;-1.930;2022-07-09T02:01:09;101753.09;;;17.60;67.57
60642;BME280;46837;52.446;-1.930;2022-07-09T02:02:09;101749.56;;;17.61;67.50
60642;BME280;46837;52.446;-1.930;2022-07-09T02:03:09;101750.88;;;17.61;67.55
60642;BME280;46837;52.446;-1.930;2022-07-09T02:04:09;101750.60;;;17.60;67.53
60642;BME280;46837;52.446;-1.930;2022-07-09T02:05:09;101751.48;;;17.55;67.71
60642;BME280;46837;52.446;-1.930;2022-07-09T02:06:09;101745.74;;;17.56;67.66
60642;BME280;46837;52.446;-1.930;2022-07-09T02:07:09;101745.19;;;17.53;67.71
60642;BME280;46837;52.446;-1.930;2022-07-09T02:08:09;101748.00;;;17.48;67.94
60642;BME280;46837;52.446;-1.930;2022-07-09T02:09:09;101747.07;;;17.48;67.93
60642;BME280;46837;52.446;-1.930;2022-07-09T02:10:09;101744.71;;;17.48;67.95
60642;BME280;46837;52.446;-1.930;2022-07-09T02:11:09;101740.99;;;17.50;67.83
60642;BME280;46837;52.446;-1.930;2022-07-09T02:12:09;101745.52;;;17.49;67.84
60642;BME280;46837;52.446;-1.930;2022-07-09T02:13:09;101743.59;;;17.47;67.89
60642;BME280;46837;52.446;-1.930;2022-07-09T02:14:09;101743.98;;;17.47;67.87
60642;BME280;46837;52.446;-1.930;2022-07-09T02:15:09;101745.37;;;17.44;67.97
60642;BME280;46837;52.446;-1.930;2022-07-09T02:16:09;101742.11;;;17.41;68.07
60642;BME280;46837;52.446;-1.930;2022-07-09T02:17:09;101742.61;;;17.40;68.12
60642;BME280;46837;52.446;-1.930;2022-07-09T02:18:09;101741.21;;;17.38;68.21
60642;BME280;46837;52.446;-1.930;2022-07-09T02:19:09;101738.23;;;17.39;68.12
60642;BME280;46837;52.446;-1.930;2022-07-09T02:20:09;101738.11;;;17.41;68.03
60642;BME280;46837;52.446;-1.930;2022-07-09T02:21:09;101738.85;;;17.37;68.14
60642;BME280;46837;52.446;-1.930;2022-07-09T02:22:09;101739.62;;;17.37;68.23
60642;BME280;46837;52.446;-1.930;2022-07-09T02:23:09;101740.99;;;17.35;68.27
60642;BME280;46837;52.446;-1.930;2022-07-09T02:24:09;101736.91;;;17.37;68.22
60642;BME280;46837;52.446;-1.930;2022-07-09T02:25:09;101738.40;;;17.39;68.12
60642;BME280;46837;52.446;-1.930;2022-07-09T02:26:09;101735.69;;;17.39;68.05
60642;BME280;46837;52.446;-1.930;2022-07-09T02:27:09;101736.41;;;17.39;68.03
60642;BME280;46837;52.446;-1.930;2022-07-09T02:28:09;101732.92;;;17.38;68.10
60642;BME280;46837;52.446;-1.930;2022-07-09T02:29:09;101734.91;;;17.39;68.04
60642;BME280;46837;52.446;-1.930;2022-07-09T02:30:09;101736.12;;;17.38;68.05
60642;BME280;46837;52.446;-1.930;2022-07-09T02:31:09;101735.41;;;17.31;68.26
60642;BME280;46837;52.446;-1.930;2022-07-09T02:32:09;101737.02;;;17.32;68.27
60642;BME280;46837;52.446;-1.930;2022-07-09T02:33:09;101735.81;;;17.33;68.21
60642;BME280;46837;52.446;-1.930;2022-07-09T02:34:09;101740.00;;;17.33;68.19
60642;BME280;46837;52.446;-1.930;2022-07-09T02:35:09;101740.51;;;17.34;68.22
60642;BME280;46837;52.446;-1.930;2022-07-09T02:36:09;101741.27;;;17.29;68.35
60642;BME280;46837;52.446;-1.930;2022-07-09T02:37:10;101739.50;;;17.25;68.49
60642;BME280;46837;52.446;-1.930;2022-07-09T02:38:09;101742.38;;;17.25;68.48
60642;BME280;46837;52.446;-1.930;2022-07-09T02:39:09;101744.41;;;17.24;68.55
60642;BME280;46837;52.446;-1.930;2022-07-09T02:40:09;101746.40;;;17.24;68.54
60642;BME280;46837;52.446;-1.930;2022-07-09T02:41:09;101744.47;;;17.24;68.47
60642;BME280;46837;52.446;-1.930;2022-07-09T02:42:09;101744.97;;;17.25;68.44
60642;BME280;46837;52.446;-1.930;2022-07-09T02:43:09;101741.14;;;17.23;68.46
60642;BME280;46837;52.446;-1.930;2022-07-09T02:44:09;101739.67;;;17.22;68.52
60642;BME280;46837;52.446;-1.930;2022-07-09T02:45:09;101738.77;;;17.17;68.71
60642;BME280;46837;52.446;-1.930;2022-07-09T02:46:09;101739.93;;;17.20;68.56
60642;BME280;46837;52.446;-1.930;2022-07-09T02:47:09;101740.32;;;17.17;68.64
60642;BME280;46837;52.446;-1.930;2022-07-09T02:48:09;101739.78;;;17.18;68.62
60642;BME280;46837;52.446;-1.930;2022-07-09T02:49:09;101738.45;;;17.18;68.64
60642;BME280;46837;52.446;-1.930;2022-07-09T02:50:09;101738.23;;;17.16;68.69
60642;BME280;46837;52.446;-1.930;2022-07-09T02:51:09;101739.82;;;17.17;68.62
60642;BME280;46837;52.446;-1.930;2022-07-09T02:52:09;101737.29;;;17.15;68.68
60642;BME280;46837;52.446;-1.930;2022-07-09T02:53:09;101738.39;;;17.15;68.70
60642;BME280;46837;52.446;-1.930;2022-07-09T02:54:09;101735.45;;;17.10;68.82
60642;BME280;46837;52.446;-1.930;2022-07-09T02:55:09;101734.62;;;17.07;68.89
60642;BME280;46837;52.446;-1.930;2022-07-09T02:56:09;101733.30;;;17.09;68.83
60642;BME280;46837;52.446;-1.930;2022-07-09T02:57:09;101738.33;;;17.11;68.74
60642;BME280;46837;52.446;-1.930;2022-07-09T02:58:09;101735.94;;;17.06;68.87
60642;BME280;46837;52.446;-1.930;2022-07-09T02:59:09;101742.46;;;17.03;69.02
60642;BME280;46837;52.446;-1.930;2022-07-09T03:00:09;101738.44;;;17.02;69.02
60642;BME280;46837;52.446;-1.930;2022-07-09T03:01:09;101741.19;;;17.03;68.90
60642;BME280;46837;52.446;-1.930;2022-07-09T03:02:09;101738.71;;;17.01;68.91
60642;BME280;46837;52.446;-1.930;2022-07-09T03:03:09;101738.16;;;17.02;68.89
60642;BME280;46837;52.446;-1.930;2022-07-09T03:04:09;101736.28;;;16.99;68.98
60642;BME280;46837;52.446;-1.930;2022-07-09T03:05:09;101738.85;;;16.96;69.04
60642;BME280;46837;52.446;-1.930;2022-07-09T03:06:10;101740.36;;;16.95;69.14
60642;BME280;46837;52.446;-1.930;2022-07-09T03:07:09;101741.89;;;16.96;69.09
60642;BME280;46837;52.446;-1.930;2022-07-09T03:08:09;101738.85;;;16.96;69.01
60642;BME280;46837;52.446;-1.930;2022-07-09T03:09:09;101736.71;;;16.97;68.92
60642;BME280;46837;52.446;-1.930;2022-07-09T03:10:09;101738.24;;;16.96;68.98
60642;BME280;46837;52.446;-1.930;2022-07-09T03:11:09;101740.95;;;16.93;69.08
60642;BME280;46837;52.446;-1.930;2022-07-09T03:12:09;101739.73;;;16.90;69.16
60642;BME280;46837;52.446;-1.930;2022-07-09T03:13:09;101742.95;;;16.91;69.16
60642;BME280;46837;52.446;-1.930;2022-07-09T03:14:09;101742.04;;;16.86;69.30
60642;BME280;46837;52.446;-1.930;2022-07-09T03:15:09;101740.67;;;16.87;69.25
60642;BME280;46837;52.446;-1.930;2022-07-09T03:16:09;101742.80;;;16.82;69.42
60642;BME280;46837;52.446;-1.930;2022-07-09T03:17:09;101746.89;;;16.82;69.40
60642;BME280;46837;52.446;-1.930;2022-07-09T03:18:11;101741.38;;;16.80;69.38
60642;BME280;46837;52.446;-1.930;2022-07-09T03:19:09;101743.13;;;16.82;69.30
60642;BME280;46837;52.446;-1.930;2022-07-09T03:20:09;101741.04;;;16.80;69.36
60642;BME280;46837;52.446;-1.930;2022-07-09T03:21:09;101740.44;;;16.81;69.34
60642;BME280;46837;52.446;-1.930;2022-07-09T03:22:09;101738.44;;;16.82;69.27
60642;BME280;46837;52.446;-1.930;2022-07-09T03:23:09;101738.43;;;16.78;69.39
60642;BME280;46837;52.446;-1.930;2022-07-09T03:24:09;101736.96;;;16.78;69.44
60642;BME280;46837;52.446;-1.930;2022-07-09T03:25:09;101738.04;;;16.76;69.47
60642;BME280;46837;52.446;-1.930;2022-07-09T03:26:09;101738.04;;;16.75;69.51
60642;BME280;46837;52.446;-1.930;2022-07-09T03:27:09;101736.07;;;16.77;69.46
60642;BME280;46837;52.446;-1.930;2022-07-09T03:28:09;101737.79;;;16.78;69.42
60642;BME280;46837;52.446;-1.930;2022-07-09T03:29:09;101736.07;;;16.80;69.33
60642;BME280;46837;52.446;-1.930;2022-07-09T03:30:09;101739.95;;;16.81;69.33
60642;BME280;46837;52.446;-1.930;2022-07-09T03:31:09;101738.32;;;16.78;69.39
60642;BME280;46837;52.446;-1.930;2022-07-09T03:32:09;101737.00;;;16.79;69.41
60642;BME280;46837;52.446;-1.930;2022-07-09T03:33:09;101742.24;;;16.81;69.33
60642;BME280;46837;52.446;-1.930;2022-07-09T03:34:09;101741.93;;;16.83;69.29
60642;BME280;46837;52.446;-1.930;2022-07-09T03:35:09;101746.41;;;16.87;69.21
60642;BME280;46837;52.446;-1.930;2022-07-09T03:36:09;101742.55;;;16.88;69.17
60642;BME280;46837;52.446;-1.930;2022-07-09T03:37:09;101742.56;;;16.91;69.11
60642;BME280;46837;52.446;-1.930;2022-07-09T03:38:09;101743.49;;;16.93;69.07
60642;BME280;46837;52.446;-1.930;2022-07-09T03:39:09;101742.11;;;16.95;68.97
60642;BME280;46837;52.446;-1.930;2022-07-09T03:40:09;101741.28;;;16.95;69.03
60642;BME280;46837;52.446;-1.930;2022-07-09T03:41:09;101747.70;;;16.97;68.95
60642;BME280;46837;52.446;-1.930;2022-07-09T03:42:09;101745.66;;;16.98;68.90
60642;BME280;46837;52.446;-1.930;2022-07-09T03:43:09;101739.70;;;16.98;68.87
60642;BME280;46837;52.446;-1.930;2022-07-09T03:44:09;101743.10;;;16.95;68.95
60642;BME280;46837;52.446;-1.930;2022-07-09T03:45:09;101742.56;;;16.94;69.03
60642;BME280;46837;52.446;-1.930;2022-07-09T03:46:09;101740.58;;;16.94;68.95
60642;BME280;46837;52.446;-1.930;2022-07-09T03:47:09;101741.02;;;16.95;68.92
60642;BME280;46837;52.446;-1.930;2022-07-09T03:48:09;101739.41;;;16.96;68.89
60642;BME280;46837;52.446;-1.930;2022-07-09T03:49:09;101742.77;;;16.95;68.88
60642;BME280;46837;52.446;-1.930;2022-07-09T03:50:09;101740.29;;;16.93;68.92
60642;BME280;46837;52.446;-1.930;2022-07-09T03:51:09;101742.22;;;16.96;68.86
60642;BME280;46837;52.446;-1.930;2022-07-09T03:52:09;101745.82;;;16.97;68.85
60642;BME280;46837;52.446;-1.930;2022-07-09T03:53:09;101743.12;;;16.98;68.79
60642;BME280;46837;52.446;-1.930;2022-07-09T03:54:09;101745.72;;;16.98;68.76
60642;BME280;46837;52.446;-1.930;2022-07-09T03:55:09;101744.89;;;16.98;68.76
60642;BME280;46837;52.446;-1.930;2022-07-09T03:56:09;101743.68;;;16.98;68.74
60642;BME280;46837;52.446;-1.930;2022-07-09T03:57:09;101745.32;;;16.97;68.76
60642;BME280;46837;52.446;-1.930;2022-07-09T03:58:09;101745.66;;;16.97;68.79
60642;BME280;46837;52.446;-1.930;2022-07-09T03:59:09;101743.34;;;16.97;68.84
60642;BME280;46837;52.446;-1.930;2022-07-09T04:00:09;101749.24;;;16.99;68.77
60642;BME280;46837;52.446;-1.930;2022-07-09T04:01:09;101743.78;;;16.98;68.91
60642;BME280;46837;52.446;-1.930;2022-07-09T04:02:09;101740.90;;;16.96;69.04
60642;BME280;46837;52.446;-1.930;2022-07-09T04:03:09;101738.96;;;16.95;69.28
60642;BME280;46837;52.446;-1.930;2022-07-09T04:04:09;101735.78;;;16.99;69.26
60642;BME280;46837;52.446;-1.930;2022-07-09T04:05:09;101737.43;;;17.03;69.12
60642;BME280;46837;52.446;-1.930;2022-07-09T04:06:09;101738.39;;;17.05;69.00
60642;BME280;46837;52.446;-1.930;2022-07-09T04:07:09;101738.67;;;17.09;68.92
60642;BME280;46837;52.446;-1.930;2022-07-09T04:08:09;101727.95;;;17.09;69.08
60642;BME280;46837;52.446;-1.930;2022-07-09T04:09:09;101734.85;;;17.14;68.93
60642;BME280;46837;52.446;-1.930;2022-07-09T04:10:09;101735.85;;;17.15;69.01
60642;BME280;46837;52.446;-1.930;2022-07-09T04:11:09;101737.23;;;17.19;68.93
60642;BME280;46837;52.446;-1.930;2022-07-09T04:12:09;101738.34;;;17.22;68.94
60642;BME280;46837;52.446;-1.930;2022-07-09T04:13:09;101735.52;;;17.25;68.87
60642;BME280;46837;52.446;-1.930;2022-07-09T04:14:09;101736.80;;;17.28;68.75
60642;BME280;46837;52.446;-1.930;2022-07-09T04:15:09;101737.67;;;17.34;68.56
60642;BME280;46837;52.446;-1.930;2022-07-09T04:16:09;101734.43;;;17.37;68.45
60642;BME280;46837;52.446;-1.930;2022-07-09T04:17:09;101735.25;;;17.39;68.41
60642;BME280;46837;52.446;-1.930;2022-07-09T04:18:09;101737.63;;;17.43;68.27
60642;BME280;46837;52.446;-1.930;2022-07-09T04:19:09;101734.24;;;17.48;68.12
60642;BME280;46837;52.446;-1.930;2022-07-09T04:20:09;101738.62;;;17.50;68.14
60642;BME280;46837;52.446;-1.930;2022-07-09T04:21:09;101736.91;;;17.54;68.08
60642;BME280;46837;52.446;-1.930;2022-07-09T04:22:09;101738.71;;;17.55;68.08
60642;BME280;46837;52.446;-1.930;2022-07-09T04:23:09;101738.01;;;17.58;68.00
60642;BME280;46837;52.446;-1.930;2022-07-09T04:24:09;101741.86;;;17.59;68.05
60642;BME280;46837;52.446;-1.930;2022-07-09T04:25:09;101741.54;;;17.59;68.07
60642;BME280;46837;52.446;-1.930;2022-07-09T04:26:09;101743.70;;;17.60;68.04
60642;BME280;46837;52.446;-1.930;2022-07-09T04:27:09;101742.04;;;17.60;68.07
60642;BME280;46837;52.446;-1.930;2022-07-09T04:28:09;101745.20;;;17.62;68.16
60642;BME280;46837;52.446;-1.930;2022-07-09T04:29:09;101746.39;;;17.62;68.18
60642;BME280;46837;52.446;-1.930;2022-07-09T04:30:09;101743.91;;;17.62;68.17
60642;BME280;46837;52.446;-1.930;2022-07-09T04:31:09;101749.84;;;17.58;68.48
60642;BME280;46837;52.446;-1.930;2022-07-09T04:32:09;101749.23;;;17.57;68.65
60642;BME280;46837;52.446;-1.930;2022-07-09T04:33:09;101742.98;;;17.58;68.69
60642;BME280;46837;52.446;-1.930;2022-07-09T04:34:09;101744.41;;;17.61;68.65
60642;BME280;46837;52.446;-1.930;2022-07-09T04:35:09;101747.29;;;17.60;68.80
60642;BME280;46837;52.446;-1.930;2022-07-09T04:36:09;101747.12;;;17.59;68.99
60642;BME280;46837;52.446;-1.930;2022-07-09T04:37:09;101741.81;;;17.64;68.80
60642;BME280;46837;52.446;-1.930;2022-07-09T04:38:10;101745.89;;;17.67;68.79
60642;BME280;46837;52.446;-1.930;2022-07-09T04:39:09;101745.23;;;17.66;69.05
60642;BME280;46837;52.446;-1.930;2022-07-09T04:40:09;101749.15;;;17.70;68.98
60642;BME280;46837;52.446;-1.930;2022-07-09T04:41:09;101745.90;;;17.72;69.00
60642;BME280;46837;52.446;-1.930;2022-07-09T04:42:09;101746.00;;;17.69;69.37
60642;BME280;46837;52.446;-1.930;2022-07-09T04:43:09;101745.51;;;17.71;69.20
60642;BME280;46837;52.446;-1.930;2022-07-09T04:44:09;101747.33;;;17.70;69.25
60642;BME280;46837;52.446;-1.930;2022-07-09T04:45:09;101744.50;;;17.73;69.06
60642;BME280;46837;52.446;-1.930;2022-07-09T04:46:09;101741.27;;;17.77;68.97
60642;BME280;46837;52.446;-1.930;2022-07-09T04:47:09;101742.59;;;17.81;68.96
60642;BME280;46837;52.446;-1.930;2022-07-09T04:48:09;101737.83;;;17.84;69.05
60642;BME280;46837;52.446;-1.930;2022-07-09T04:49:09;101736.14;;;17.79;69.49
60642;BME280;46837;52.446;-1.930;2022-07-09T04:50:09;101735.58;;;17.79;69.66
60642;BME280;46837;52.446;-1.930;2022-07-09T04:51:09;101735.68;;;17.81;69.52
60642;BME280;46837;52.446;-1.930;2022-07-09T04:52:09;101737.56;;;17.86;69.38
60642;BME280;46837;52.446;-1.930;2022-07-09T04:53:09;101739.37;;;17.88;69.44
60642;BME280;46837;52.446;-1.930;2022-07-09T04:54:09;101737.37;;;17.92;69.43
60642;BME280;46837;52.446;-1.930;2022-07-09T04:55:09;101741.08;;;17.96;69.33
60642;BME280;46837;52.446;-1.930;2022-07-09T04:56:09;101737.32;;;17.97;69.48
60642;BME280;46837;52.446;-1.930;2022-07-09T04:57:09;101740.35;;;18.00;69.49
60642;BME280;46837;52.446;-1.930;2022-07-09T04:58:09;101743.93;;;18.03;69.64
60642;BME280;46837;52.446;-1.930;2022-07-09T04:59:09;101741.00;;;18.02;69.61
60642;BME280;46837;52.446;-1.930;2022-07-09T05:00:09;101742.34;;;18.00;69.76
60642;BME280;46837;52.446;-1.930;2022-07-09T05:01:09;101745.33;;;18.00;69.72
60642;BME280;46837;52.446;-1.930;2022-07-09T05:02:09;101740.73;;;17.97;69.84
60642;BME280;46837;52.446;-1.930;2022-07-09T05:03:09;101737.25;;;17.99;69.76
60642;BME280;46837;52.446;-1.930;2022-07-09T05:04:09;101738.05;;;18.05;69.62
60642;BME280;46837;52.446;-1.930;2022-07-09T05:05:09;101735.84;;;18.06;69.54
60642;BME280;46837;52.446;-1.930;2022-07-09T05:06:09;101738.93;;;18.08;69.54
60642;BME280;46837;52.446;-1.930;2022-07-09T05:07:09;101735.01;;;18.10;69.55
60642;BME280;46837;52.446;-1.930;2022-07-09T05:08:09;101736.59;;;18.12;69.51
60642;BME280;46837;52.446;-1.930;2022-07-09T05:09:09;101732.29;;;18.08;69.64
60642;BME280;46837;52.446;-1.930;2022-07-09T05:10:09;101733.29;;;18.09;69.60